Time,TemperatureF,DewpointF,PressureIn,WindDirection,WindDirectionDegrees,WindSpeedMPH,WindSpeedGustMPH,Humidity,HourlyPrecipIn,Conditions,Clouds,dailyrainin,SoftwareType,DateUTC
2015-04-25 00:05:00,56.2,30.9,29.88,SSE,156,0.0,0.0,38,0.00,,,0.00,Wunderground v.1.15,2015-04-25 04:05:00,
2015-04-25 00:10:00,56.2,30.2,29.87,SE,139,0.0,0.0,37,0.00,,,0.00,Wunderground v.1.15,2015-04-25 04:10:00,
2015-04-25 00:15:00,56.4,30.4,29.87,ESE,108,1.0,2.0,37,0.00,,,0.00,Wunderground v.1.15,2015-04-25 04:15:00,
2015-04-25 00:25:00,56.5,31.2,29.87,SE,140,2.0,3.0,38,0.00,,,0.00,Wunderground v.1.15,2015-04-25 04:25:00,
2015-04-25 00:35:00,56.4,31.1,29.86,ESE,104,1.0,1.0,38,0.00,,,0.00,Wunderground v.1.15,2015-04-25 04:35:00,
2015-04-25 00:40:00,56.4,30.4,29.86,East,90,1.0,1.0,37,0.00,,,0.00,Wunderground v.1.15,2015-04-25 04:40:00,
2015-04-25 00:50:00,56.5,30.5,29.86,SE,128,1.0,1.0,37,0.00,,,0.00,Wunderground v.1.15,2015-04-25 04:50:00,
2015-04-25 00:55:00,56.5,30.5,29.86,SE,131,1.0,1.0,37,0.00,,,0.00,Wunderground v.1.15,2015-04-25 04:55:00,
2015-04-25 01:05:00,56.5,31.2,29.86,SE,134,0.0,0.0,38,0.00,,,0.00,Wunderground v.1.15,2015-04-25 05:05:00,
2015-04-25 01:10:00,56.4,31.1,29.86,SSE,155,0.0,1.0,38,0.00,,,0.00,Wunderground v.1.15,2015-04-25 05:10:00,
2015-04-25 01:20:00,56.3,31.6,29.86,ESE,120,0.0,0.0,39,0.00,,,0.00,Wunderground v.1.15,2015-04-25 05:20:00,
2015-04-25 01:30:00,55.9,32.5,29.86,East,97,0.0,0.0,41,0.00,,,0.00,Wunderground v.1.15,2015-04-25 05:30:00,
2015-04-25 01:40:00,55.4,33.3,29.86,SE,142,0.0,2.0,43,0.00,,,0.00,Wunderground v.1.15,2015-04-25 05:40:00,
2015-04-25 01:50:00,55.0,35.1,29.86,North,9,0.0,0.0,47,0.00,,,0.00,Wunderground v.1.15,2015-04-25 05:50:00,
2015-04-25 02:00:00,54.4,35.6,29.86,East,84,0.0,0.0,49,0.00,,,0.00,Wunderground v.1.15,2015-04-25 06:00:00,
2015-04-25 02:10:00,54.2,36.5,29.87,East,85,0.0,0.0,51,0.00,,,0.00,Wunderground v.1.15,2015-04-25 06:10:00,
2015-04-25 02:20:00,53.8,38.0,29.87,East,84,0.0,0.0,55,0.00,,,0.00,Wunderground v.1.15,2015-04-25 06:20:00,
2015-04-25 02:30:00,53.7,37.4,29.86,East,85,0.0,0.0,54,0.00,,,0.00,Wunderground v.1.15,2015-04-25 06:30:00,
2015-04-25 02:40:00,53.6,35.9,29.86,SE,142,0.0,0.0,51,0.00,,,0.00,Wunderground v.1.15,2015-04-25 06:40:00,
2015-04-25 02:50:00,53.7,35.5,29.86,ESE,115,0.0,0.0,50,0.00,,,0.00,Wunderground v.1.15,2015-04-25 06:50:00,
2015-04-25 03:00:00,53.8,36.1,29.85,SE,138,0.0,0.0,51,0.00,,,0.00,Wunderground v.1.15,2015-04-25 07:00:00,
2015-04-25 03:10:00,53.5,38.2,29.85,SE,139,0.0,0.0,56,0.00,,,0.00,Wunderground v.1.15,2015-04-25 07:10:00,
2015-04-25 03:20:00,52.8,38.9,29.86,SW,221,0.0,0.0,59,0.00,,,0.00,Wunderground v.1.15,2015-04-25 07:20:00,
2015-04-25 03:30:00,52.4,39.3,29.86,SW,221,0.0,0.0,61,0.00,,,0.00,Wunderground v.1.15,2015-04-25 07:30:00,
2015-04-25 03:40:00,52.2,40.4,29.86,SW,221,0.0,0.0,64,0.00,,,0.00,Wunderground v.1.15,2015-04-25 07:40:00,
2015-04-25 03:50:00,52.3,41.3,29.86,SW,221,0.0,0.0,66,0.00,,,0.00,Wunderground v.1.15,2015-04-25 07:50:00,
2015-04-25 04:00:00,52.2,40.4,29.86,South,186,0.0,0.0,64,0.00,,,0.00,Wunderground v.1.15,2015-04-25 08:00:00,
2015-04-25 04:10:00,52.4,40.2,29.85,SSE,165,0.0,0.0,63,0.00,,,0.00,Wunderground v.1.15,2015-04-25 08:10:00,
2015-04-25 04:20:00,52.5,39.0,29.84,SSE,166,0.0,1.0,60,0.00,,,0.00,Wunderground v.1.15,2015-04-25 08:20:00,
2015-04-25 04:25:00,52.4,38.9,29.84,ESE,113,0.0,1.0,60,0.00,,,0.00,Wunderground v.1.15,2015-04-25 08:25:00,
2015-04-25 04:35:00,51.6,39.8,29.84,SSE,159,1.0,2.0,64,0.00,,,0.00,Wunderground v.1.15,2015-04-25 08:35:00,
2015-04-25 04:45:00,50.3,41.3,29.84,SE,143,1.0,1.0,71,0.00,,,0.00,Wunderground v.1.15,2015-04-25 08:45:00,
2015-04-25 04:55:00,49.5,41.6,29.83,SE,141,0.0,0.0,74,0.00,,,0.01,Wunderground v.1.15,2015-04-25 08:55:00,
2015-04-25 05:05:00,49.1,41.5,29.83,SE,136,0.0,0.0,75,0.00,,,0.01,Wunderground v.1.15,2015-04-25 09:05:00,
2015-04-25 05:15:00,49.1,41.9,29.82,East,80,0.0,0.0,76,0.00,,,0.01,Wunderground v.1.15,2015-04-25 09:15:00,
2015-04-25 05:25:00,49.3,41.7,29.81,ESE,122,0.0,0.0,75,0.00,,,0.01,Wunderground v.1.15,2015-04-25 09:25:00,
2015-04-25 05:35:00,49.3,42.4,29.81,East,88,0.0,0.0,77,0.00,,,0.01,Wunderground v.1.15,2015-04-25 09:35:00,
2015-04-25 05:45:00,49.2,42.3,29.80,NE,48,1.0,2.0,77,0.00,,,0.01,Wunderground v.1.15,2015-04-25 09:45:00,
2015-04-25 05:55:00,49.2,41.6,29.80,ENE,77,1.0,1.0,75,0.00,,,0.01,Wunderground v.1.15,2015-04-25 09:55:00,
2015-04-25 06:05:00,49.2,41.3,29.79,ESE,120,0.0,1.0,74,0.00,,,0.01,Wunderground v.1.15,2015-04-25 10:05:00,
2015-04-25 06:15:00,49.3,40.3,29.79,East,83,1.0,2.0,71,0.00,,,0.01,Wunderground v.1.15,2015-04-25 10:15:00,
2015-04-25 06:25:00,49.5,40.5,29.79,East,83,1.0,1.0,71,0.00,,,0.01,Wunderground v.1.15,2015-04-25 10:25:00,
2015-04-25 06:35:00,49.7,40.3,29.79,ESE,113,0.0,1.0,70,0.00,,,0.01,Wunderground v.1.15,2015-04-25 10:35:00,
2015-04-25 06:45:00,49.8,40.0,29.79,East,80,1.0,1.0,69,0.00,,,0.01,Wunderground v.1.15,2015-04-25 10:45:00,
2015-04-25 06:55:00,49.9,40.1,29.78,ENE,59,0.0,1.0,69,0.00,,,0.01,Wunderground v.1.15,2015-04-25 10:55:00,
2015-04-25 07:05:00,49.8,39.3,29.79,ENE,64,1.0,2.0,67,0.00,,,0.01,Wunderground v.1.15,2015-04-25 11:05:00,
2015-04-25 07:15:00,49.8,38.9,29.79,SE,141,1.0,2.0,66,0.00,,,0.01,Wunderground v.1.15,2015-04-25 11:15:00,
2015-04-25 07:25:00,49.9,39.0,29.79,SE,143,1.0,2.0,66,0.00,,,0.01,Wunderground v.1.15,2015-04-25 11:25:00,
2015-04-25 07:35:00,49.8,39.7,29.79,SE,140,0.0,1.0,68,0.00,,,0.01,Wunderground v.1.15,2015-04-25 11:35:00,
2015-04-25 07:45:00,49.5,40.1,29.80,ENE,68,0.0,1.0,70,0.00,,,0.01,Wunderground v.1.15,2015-04-25 11:45:00,
2015-04-25 07:55:00,49.2,40.6,29.79,ENE,70,1.0,3.0,72,0.00,,,0.01,Wunderground v.1.15,2015-04-25 11:55:00,
2015-04-25 08:05:00,49.2,40.9,29.77,NNE,30,2.0,3.0,73,0.00,,,0.01,Wunderground v.1.15,2015-04-25 12:05:00,
2015-04-25 08:15:00,49.2,41.3,29.77,ENE,77,2.0,3.0,74,0.00,,,0.01,Wunderground v.1.15,2015-04-25 12:15:00,
2015-04-25 08:25:00,49.2,41.6,29.76,East,84,1.0,2.0,75,0.00,,,0.01,Wunderground v.1.15,2015-04-25 12:25:00,
2015-04-25 08:35:00,49.1,41.5,29.76,East,84,2.0,3.0,75,0.00,,,0.01,Wunderground v.1.15,2015-04-25 12:35:00,
2015-04-25 08:45:00,49.1,41.5,29.75,East,87,3.0,3.0,75,0.00,,,0.01,Wunderground v.1.15,2015-04-25 12:45:00,
2015-04-25 08:55:00,49.4,41.8,29.75,East,84,2.0,4.0,75,0.00,,,0.01,Wunderground v.1.15,2015-04-25 12:55:00,
2015-04-25 09:05:00,49.6,41.7,29.74,East,91,3.0,3.0,74,0.00,,,0.01,Wunderground v.1.15,2015-04-25 13:05:00,
2015-04-25 09:15:00,50.0,41.7,29.75,East,82,2.0,2.0,73,0.00,,,0.01,Wunderground v.1.15,2015-04-25 13:15:00,
2015-04-25 09:25:00,50.1,41.8,29.74,ENE,77,3.0,5.0,73,0.00,,,0.01,Wunderground v.1.15,2015-04-25 13:25:00,
2015-04-25 09:30:00,50.2,41.9,29.74,ESE,111,3.0,3.0,73,0.00,,,0.01,Wunderground v.1.15,2015-04-25 13:30:00,
2015-04-25 09:40:00,50.5,42.2,29.74,ESE,112,2.0,2.0,73,0.00,,,0.01,Wunderground v.1.15,2015-04-25 13:40:00,
2015-04-25 09:45:00,50.6,42.6,29.74,ENE,60,2.0,2.0,74,0.00,,,0.01,Wunderground v.1.15,2015-04-25 13:45:00,
2015-04-25 09:55:00,50.9,42.9,29.74,East,89,1.0,3.0,74,0.00,,,0.01,Wunderground v.1.15,2015-04-25 13:55:00,
2015-04-25 10:00:00,50.9,42.6,29.74,ESE,108,2.0,2.0,73,0.00,,,0.01,Wunderground v.1.15,2015-04-25 14:00:00,
2015-04-25 10:10:00,50.7,43.1,29.73,East,91,2.0,2.0,75,0.00,,,0.01,Wunderground v.1.15,2015-04-25 14:10:00,
2015-04-25 10:20:00,50.3,43.7,29.72,SE,129,2.0,5.0,78,0.00,,,0.01,Wunderground v.1.15,2015-04-25 14:20:00,
2015-04-25 10:30:00,49.9,44.3,29.71,ENE,75,2.0,4.0,81,0.00,,,0.02,Wunderground v.1.15,2015-04-25 14:30:00,
2015-04-25 10:40:00,49.9,45.3,29.71,NE,53,2.0,2.0,84,0.06,,,0.03,Wunderground v.1.15,2015-04-25 14:40:00,
2015-04-25 10:50:00,50.0,45.4,29.71,ENE,70,2.0,2.0,84,0.05,,,0.04,Wunderground v.1.15,2015-04-25 14:50:00,
2015-04-25 11:00:00,49.9,45.3,29.71,East,100,2.0,3.0,84,0.00,,,0.04,Wunderground v.1.15,2015-04-25 15:00:00,
2015-04-25 11:10:00,50.0,46.0,29.71,NNE,14,1.0,1.0,86,0.00,,,0.05,Wunderground v.1.15,2015-04-25 15:10:00,
2015-04-25 11:20:00,49.8,45.8,29.72,SE,127,1.0,1.0,86,0.04,,,0.06,Wunderground v.1.15,2015-04-25 15:20:00,
2015-04-25 11:30:00,49.4,45.4,29.72,ESE,108,2.0,2.0,86,0.12,,,0.08,Wunderground v.1.15,2015-04-25 15:30:00,
2015-04-25 11:40:00,49.2,45.8,29.71,ENE,74,2.0,2.0,88,0.10,,,0.10,Wunderground v.1.15,2015-04-25 15:40:00,
2015-04-25 11:50:00,49.0,45.6,29.70,East,84,2.0,2.0,88,0.07,,,0.11,Wunderground v.1.15,2015-04-25 15:50:00,
2015-04-25 12:00:00,48.9,45.8,29.70,SSE,155,2.0,2.0,89,0.04,,,0.12,Wunderground v.1.15,2015-04-25 16:00:00,
2015-04-25 12:10:00,48.9,45.8,29.69,ESE,108,1.0,3.0,89,0.04,,,0.12,Wunderground v.1.15,2015-04-25 16:10:00,
2015-04-25 12:20:00,48.9,46.1,29.70,SW,214,1.0,1.0,90,0.27,,,0.15,Wunderground v.1.15,2015-04-25 16:20:00,
2015-04-25 12:25:00,48.7,45.6,29.69,East,93,1.0,1.0,89,0.19,,,0.17,Wunderground v.1.15,2015-04-25 16:25:00,
2015-04-25 12:35:00,48.7,46.2,29.67,ENE,68,2.0,3.0,91,0.15,,,0.20,Wunderground v.1.15,2015-04-25 16:35:00,
2015-04-25 12:45:00,48.5,46.0,29.66,ENE,60,2.0,3.0,91,0.07,,,0.22,Wunderground v.1.15,2015-04-25 16:45:00,
2015-04-25 12:55:00,48.5,46.0,29.67,NE,46,2.0,2.0,91,0.83,,,0.25,Wunderground v.1.15,2015-04-25 16:55:00,
2015-04-25 13:05:00,48.5,46.0,29.66,ENE,73,2.0,2.0,91,0.26,,,0.31,Wunderground v.1.15,2015-04-25 17:05:00,
2015-04-25 13:10:00,48.4,45.9,29.65,ENE,74,2.0,2.0,91,0.16,,,0.32,Wunderground v.1.15,2015-04-25 17:10:00,
2015-04-25 13:20:00,48.5,46.3,29.65,ENE,64,3.0,3.0,92,0.33,,,0.36,Wunderground v.1.15,2015-04-25 17:20:00,
2015-04-25 13:30:00,48.6,46.4,29.65,East,98,1.0,1.0,92,0.18,,,0.40,Wunderground v.1.15,2015-04-25 17:30:00,
2015-04-25 13:40:00,48.7,46.5,29.63,ENE,60,2.0,2.0,92,0.10,,,0.41,Wunderground v.1.15,2015-04-25 17:40:00,
2015-04-25 13:45:00,48.8,46.6,29.63,ENE,78,3.0,3.0,92,0.21,,,0.43,Wunderground v.1.15,2015-04-25 17:45:00,
2015-04-25 13:55:00,49.1,46.9,29.62,ENE,58,3.0,3.0,92,0.05,,,0.43,Wunderground v.1.15,2015-04-25 17:55:00,
2015-04-25 14:05:00,49.3,47.1,29.61,NE,37,3.0,6.0,92,0.04,,,0.44,Wunderground v.1.15,2015-04-25 18:05:00,
2015-04-25 14:15:00,49.2,47.0,29.62,NNE,20,4.0,5.0,92,0.00,,,0.44,Wunderground v.1.15,2015-04-25 18:15:00,
2015-04-25 14:20:00,49.1,46.9,29.62,East,89,4.0,4.0,92,0.00,,,0.44,Wunderground v.1.15,2015-04-25 18:20:00,
2015-04-25 14:30:00,49.1,46.9,29.62,East,82,3.0,4.0,92,0.08,,,0.46,Wunderground v.1.15,2015-04-25 18:30:00,
2015-04-25 14:40:00,49.1,46.9,29.61,ESE,108,3.0,3.0,92,0.23,,,0.50,Wunderground v.1.15,2015-04-25 18:40:00,
2015-04-25 14:50:00,49.1,46.9,29.61,ESE,102,3.0,3.0,92,0.11,,,0.52,Wunderground v.1.15,2015-04-25 18:50:00,
2015-04-25 15:00:00,48.9,46.7,29.61,East,96,3.0,7.0,92,0.07,,,0.53,Wunderground v.1.15,2015-04-25 19:00:00,
2015-04-25 15:05:00,48.9,46.7,29.61,NE,37,3.0,7.0,92,0.07,,,0.53,Wunderground v.1.15,2015-04-25 19:05:00,
2015-04-25 15:15:00,48.3,45.8,29.61,ENE,71,4.0,4.0,91,0.00,,,0.53,Wunderground v.1.15,2015-04-25 19:15:00,
2015-04-25 15:25:00,47.7,45.2,29.61,East,82,4.0,5.0,91,0.00,,,0.54,Wunderground v.1.15,2015-04-25 19:25:00,
2015-04-25 15:35:00,47.4,45.2,29.61,ENE,58,3.0,4.0,92,0.00,,,0.54,Wunderground v.1.15,2015-04-25 19:35:00,
2015-04-25 15:45:00,47.2,45.0,29.62,NNE,26,2.0,4.0,92,0.00,,,0.54,Wunderground v.1.15,2015-04-25 19:45:00,
2015-04-25 15:50:00,46.9,44.7,29.63,NE,34,3.0,4.0,92,0.00,,,0.54,Wunderground v.1.15,2015-04-25 19:50:00,
2015-04-25 16:00:00,46.6,44.4,29.65,NNE,27,3.0,3.0,92,0.00,,,0.55,Wunderground v.1.15,2015-04-25 20:00:00,
2015-04-25 16:10:00,46.5,44.3,29.64,NNE,15,4.0,5.0,92,0.00,,,0.55,Wunderground v.1.15,2015-04-25 20:10:00,
2015-04-25 16:20:00,46.3,44.1,29.65,NE,41,4.0,6.0,92,0.00,,,0.55,Wunderground v.1.15,2015-04-25 20:20:00,
2015-04-25 16:30:00,45.7,43.2,29.63,East,86,4.0,7.0,91,0.00,,,0.55,Wunderground v.1.15,2015-04-25 20:30:00,
2015-04-25 16:40:00,45.3,42.8,29.62,ENE,74,4.0,4.0,91,0.00,,,0.55,Wunderground v.1.15,2015-04-25 20:40:00,
2015-04-25 16:45:00,45.3,43.1,29.62,ENE,74,4.0,4.0,92,0.00,,,0.55,Wunderground v.1.15,2015-04-25 20:45:00,
2015-04-25 16:55:00,44.8,42.6,29.61,East,80,4.0,6.0,92,0.00,,,0.55,Wunderground v.1.15,2015-04-25 20:55:00,
2015-04-25 17:05:00,44.3,42.1,29.62,ENE,66,4.0,6.0,92,0.00,,,0.55,Wunderground v.1.15,2015-04-25 21:05:00,
2015-04-25 17:15:00,44.0,41.8,29.61,ENE,73,4.0,4.0,92,0.00,,,0.56,Wunderground v.1.15,2015-04-25 21:15:00,
2015-04-25 17:25:00,43.9,41.7,29.62,East,91,3.0,3.0,92,0.07,,,0.57,Wunderground v.1.15,2015-04-25 21:25:00,
2015-04-25 17:30:00,44.0,41.8,29.63,NE,37,3.0,3.0,92,0.04,,,0.57,Wunderground v.1.15,2015-04-25 21:30:00,
2015-04-25 17:40:00,44.3,42.1,29.63,East,89,4.0,4.0,92,0.00,,,0.57,Wunderground v.1.15,2015-04-25 21:40:00,
2015-04-25 17:50:00,44.5,42.3,29.63,NE,53,3.0,4.0,92,0.16,,,0.59,Wunderground v.1.15,2015-04-25 21:50:00,
2015-04-25 18:00:00,44.6,42.4,29.62,ENE,78,4.0,4.0,92,0.06,,,0.60,Wunderground v.1.15,2015-04-25 22:00:00,
2015-04-25 18:05:00,44.7,42.8,29.61,NE,52,4.0,4.0,93,0.06,,,0.60,Wunderground v.1.15,2015-04-25 22:05:00,
2015-04-25 18:15:00,45.0,43.1,29.60,NE,46,3.0,4.0,93,0.04,,,0.60,Wunderground v.1.15,2015-04-25 22:15:00,
2015-04-25 18:25:00,44.8,42.6,29.60,NE,44,4.0,4.0,92,0.00,,,0.60,Wunderground v.1.15,2015-04-25 22:25:00,
2015-04-25 18:35:00,44.9,42.7,29.61,ENE,78,3.0,4.0,92,0.00,,,0.60,Wunderground v.1.15,2015-04-25 22:35:00,
2015-04-25 18:45:00,44.9,42.7,29.61,ESE,108,4.0,4.0,92,0.00,,,0.61,Wunderground v.1.15,2015-04-25 22:45:00,
2015-04-25 18:50:00,45.1,42.9,29.61,East,82,2.0,3.0,92,0.00,,,0.61,Wunderground v.1.15,2015-04-25 22:50:00,
2015-04-25 19:00:00,45.1,42.9,29.61,East,91,2.0,2.0,92,0.00,,,0.61,Wunderground v.1.15,2015-04-25 23:00:00,
2015-04-25 19:10:00,45.3,43.1,29.61,NE,46,3.0,4.0,92,0.00,,,0.61,Wunderground v.1.15,2015-04-25 23:10:00,
2015-04-25 19:15:00,45.3,43.1,29.61,NE,35,3.0,6.0,92,0.00,,,0.61,Wunderground v.1.15,2015-04-25 23:15:00,
2015-04-25 19:25:00,45.4,43.2,29.61,NE,50,3.0,3.0,92,0.00,,,0.61,Wunderground v.1.15,2015-04-25 23:25:00,
2015-04-25 19:35:00,45.5,43.3,29.61,NNE,26,4.0,5.0,92,0.00,,,0.61,Wunderground v.1.15,2015-04-25 23:35:00,